createdAt,value
2023-01-20T00:01:12.155Z,-0.50
2023-01-20T00:03:42.842Z,-0.40
2023-01-20T00:06:11.176Z,-0.40
2023-01-20T00:08:39.889Z,-0.20
2023-01-20T00:11:08.881Z,-0.10
2023-01-20T00:13:37.401Z,0.00
2023-01-20T00:16:06.235Z,-0.10
2023-01-20T00:18:35.104Z,-0.10
2023-01-20T00:21:06.008Z,-0.20
2023-01-20T00:23:34.280Z,-0.30
2023-01-20T00:26:05.792Z,-0.30
2023-01-20T00:28:33.999Z,-0.40
2023-01-20T00:31:12.166Z,-0.40
2023-01-20T00:33:40.527Z,-0.50
2023-01-20T00:36:10.678Z,-0.50
2023-01-20T00:38:39.222Z,-0.50
2023-01-20T00:41:07.678Z,-0.60
2023-01-20T00:43:36.218Z,-0.30
2023-01-20T00:46:05.053Z,-0.30
2023-01-20T00:48:33.051Z,-0.20
2023-01-20T00:51:01.828Z,-0.30
2023-01-20T00:53:31.381Z,-0.30
2023-01-20T00:55:59.690Z,-0.30
2023-01-20T00:58:27.796Z,-0.40
2023-01-20T01:00:57.701Z,-0.50
2023-01-20T01:03:27.964Z,-0.50
2023-01-20T01:05:56.124Z,-0.40
2023-01-20T01:08:24.171Z,-0.40
2023-01-20T01:10:56.705Z,-0.40
2023-01-20T01:13:24.720Z,-0.40
2023-01-20T01:15:52.963Z,-0.40
2023-01-20T01:18:21.032Z,-0.40
2023-01-20T01:20:49.053Z,-0.40
2023-01-20T01:23:17.104Z,-0.40
2023-01-20T01:25:45.201Z,-0.40
2023-01-20T01:28:14.571Z,-0.40
2023-01-20T01:30:42.620Z,-0.40
2023-01-20T01:33:10.631Z,-0.40
2023-01-20T01:35:38.761Z,-0.40
2023-01-20T01:38:06.828Z,-0.40
2023-01-20T01:40:35.587Z,-0.40
2023-01-20T01:43:03.644Z,-0.40
2023-01-20T01:45:34.252Z,-0.50
2023-01-20T01:48:06.767Z,-0.40
2023-01-20T01:50:42.324Z,-0.40
2023-01-20T01:53:11.175Z,-0.50
2023-01-20T01:55:42.705Z,-0.50
2023-01-20T01:58:15.099Z,-0.50
2023-01-20T02:00:45.821Z,-0.50
2023-01-20T02:03:14.307Z,-0.40
2023-01-20T02:05:44.224Z,-0.50
2023-01-20T02:08:12.761Z,-0.40
2023-01-20T02:10:40.804Z,-0.30
2023-01-20T02:13:08.911Z,-0.30
2023-01-20T02:15:42.040Z,-0.30
2023-01-20T02:18:35.525Z,-0.30
2023-01-20T02:21:36.570Z,-0.30
2023-01-20T02:24:27.569Z,-0.30
2023-01-20T02:27:03.471Z,-0.30
2023-01-20T02:29:52.153Z,-0.30
2023-01-20T02:32:28.193Z,-0.40
2023-01-20T02:35:01.839Z,-0.40
2023-01-20T02:37:34.829Z,-0.40
2023-01-20T02:40:16.980Z,-0.40
2023-01-20T02:42:51.120Z,-0.40
2023-01-20T02:45:23.332Z,-0.50
2023-01-20T02:47:58.428Z,-0.60
2023-01-20T02:50:41.322Z,-0.60
2023-01-20T02:53:13.492Z,-0.50
2023-01-20T02:55:45.661Z,-0.50
2023-01-20T02:58:20.678Z,-0.50
2023-01-20T03:00:54.073Z,-0.40
2023-01-20T03:03:27.214Z,-0.50
2023-01-20T03:05:59.443Z,-0.50
2023-01-20T03:08:31.898Z,-0.50
2023-01-20T03:11:05.562Z,-0.40
2023-01-20T03:13:37.137Z,-0.40
2023-01-20T03:16:09.574Z,-0.30
2023-01-20T03:18:40.290Z,-0.40
2023-01-20T03:21:09.988Z,-0.40
2023-01-20T03:23:43.874Z,-0.50
2023-01-20T03:26:15.607Z,-0.30
2023-01-20T03:28:45.344Z,-0.30
2023-01-20T03:31:17.979Z,-0.20
2023-01-20T03:33:48.691Z,-0.20
2023-01-20T03:36:17.566Z,-0.20
2023-01-20T03:38:46.477Z,-0.20
2023-01-20T03:41:22.554Z,-0.20
2023-01-20T03:43:56.950Z,-0.30
2023-01-20T03:46:32.136Z,-0.20
2023-01-20T03:49:09.896Z,-0.30
2023-01-20T03:51:49.622Z,-0.20
2023-01-20T03:54:23.453Z,-0.20
2023-01-20T03:56:57.780Z,-0.20
2023-01-20T03:59:27.038Z,-0.20
2023-01-20T04:01:55.815Z,-0.30
2023-01-20T04:04:25.484Z,-0.30
2023-01-20T04:06:53.963Z,-0.20
2023-01-20T04:09:27.727Z,-0.30
2023-01-20T04:11:56.161Z,-0.20
2023-01-20T04:14:24.243Z,-0.20
2023-01-20T04:16:54.161Z,-0.20
2023-01-20T04:19:22.240Z,-0.20
2023-01-20T04:21:59.047Z,-0.20
2023-01-20T04:24:30.684Z,-0.10
2023-01-20T04:26:58.692Z,-0.20
2023-01-20T04:29:26.751Z,-0.30
2023-01-20T04:32:00.268Z,-0.30
2023-01-20T04:34:28.588Z,-0.20
2023-01-20T04:36:57.955Z,-0.10
2023-01-20T04:39:26.053Z,-0.10
2023-01-20T04:41:54.090Z,0.00
2023-01-20T04:44:22.163Z,0.10
2023-01-20T04:46:50.167Z,0.00
2023-01-20T04:49:18.353Z,-0.10
2023-01-20T04:51:46.388Z,-0.10
2023-01-20T04:54:15.789Z,-0.10
2023-01-20T04:56:44.186Z,-0.10
2023-01-20T04:59:12.382Z,-0.10
2023-01-20T05:01:40.471Z,-0.20
2023-01-20T05:04:08.698Z,-0.30
2023-01-20T05:06:36.726Z,-0.30
2023-01-20T05:09:04.974Z,-0.30
2023-01-20T05:11:34.352Z,-0.30
2023-01-20T05:14:02.503Z,-0.30
2023-01-20T05:16:32.096Z,-0.30
2023-01-20T05:19:00.137Z,-0.40
2023-01-20T05:21:28.590Z,-0.40
2023-01-20T05:23:57.609Z,-0.30
2023-01-20T05:26:26.370Z,-0.40
2023-01-20T05:28:55.795Z,-0.30
2023-01-20T05:31:23.917Z,-0.30
2023-01-20T05:33:52.072Z,-0.20
2023-01-20T05:36:20.147Z,-0.20
2023-01-20T05:38:48.208Z,-0.20
2023-01-20T05:41:16.597Z,0.00
2023-01-20T05:43:44.617Z,0.00
2023-01-20T05:46:15.670Z,-0.10
2023-01-20T05:48:43.730Z,-0.20
2023-01-20T05:51:11.810Z,-0.20
2023-01-20T05:53:39.842Z,-0.40
2023-01-20T05:56:08.333Z,-0.40
2023-01-20T05:58:36.402Z,-0.60
2023-01-20T06:01:08.331Z,-0.60
2023-01-20T06:03:37.978Z,-0.60
2023-01-20T06:06:08.777Z,-0.60
2023-01-20T06:08:37.287Z,-0.60
2023-01-20T06:11:05.408Z,-0.60
2023-01-20T06:13:35.388Z,-0.60
2023-01-20T06:16:05.654Z,-0.60
2023-01-20T06:18:36.824Z,-0.50
2023-01-20T06:21:05.114Z,-0.50
2023-01-20T06:23:33.503Z,-0.40
2023-01-20T06:26:02.631Z,-0.40
2023-01-20T06:28:33.022Z,-0.30
2023-01-20T06:31:02.681Z,-0.30
2023-01-20T06:33:30.858Z,-0.30
2023-01-20T06:36:00.811Z,-0.40
2023-01-20T06:38:31.662Z,-0.40
2023-01-20T06:41:00.726Z,-0.50
2023-01-20T06:43:29.962Z,-0.50
2023-01-20T06:46:01.455Z,-0.50
2023-01-20T06:48:30.032Z,-0.50
2023-01-20T06:51:06.899Z,-0.50
2023-01-20T06:53:35.241Z,-0.50
2023-01-20T06:56:03.884Z,-0.50
2023-01-20T06:58:33.940Z,-0.50
2023-01-20T07:01:08.757Z,-0.40
2023-01-20T07:03:37.285Z,-0.40
2023-01-20T07:06:15.552Z,-0.40
2023-01-20T07:08:44.459Z,-0.30
2023-01-20T07:11:12.842Z,-0.30
2023-01-20T07:13:41.041Z,-0.30
2023-01-20T07:16:12.028Z,-0.20
2023-01-20T07:18:41.639Z,-0.20
2023-01-20T07:21:12.937Z,-0.30
2023-01-20T07:23:41.217Z,-0.30
2023-01-20T07:26:11.518Z,-0.20
2023-01-20T07:28:40.379Z,-0.20
2023-01-20T07:31:10.731Z,-0.20
2023-01-20T07:33:39.516Z,-0.20
2023-01-20T07:36:08.618Z,-0.20
2023-01-20T07:38:38.142Z,-0.20
2023-01-20T07:41:08.519Z,-0.20
2023-01-20T07:43:36.596Z,-0.20
2023-01-20T07:46:06.494Z,-0.40
2023-01-20T07:48:35.197Z,-0.40
2023-01-20T07:51:05.869Z,-0.40
2023-01-20T07:53:35.992Z,-0.40
2023-01-20T07:56:10.860Z,-0.30
2023-01-20T07:58:40.596Z,-0.40
2023-01-20T08:01:10.687Z,-0.40
2023-01-20T08:03:48.372Z,-0.50
2023-01-20T08:06:32.453Z,-0.50
2023-01-20T08:09:33.590Z,0.20
2023-01-20T08:15:38.952Z,0.50
2023-01-20T08:18:07.672Z,1.00
2023-01-20T08:20:42.452Z,1.40
2023-01-20T08:23:10.885Z,1.50
2023-01-20T08:25:39.429Z,1.60
2023-01-20T08:28:10.021Z,1.50
2023-01-20T08:30:39.032Z,1.40
2023-01-20T08:33:07.424Z,1.40
2023-01-20T08:35:36.914Z,1.40
2023-01-20T08:38:06.911Z,1.50
2023-01-20T08:40:35.957Z,1.60
2023-01-20T08:43:04.373Z,1.70
2023-01-20T08:45:33.918Z,1.70
2023-01-20T08:48:02.045Z,1.70
2023-01-20T08:50:30.238Z,1.80
2023-01-20T08:53:01.717Z,1.80
2023-01-20T08:55:31.754Z,2.00
2023-01-20T08:58:00.265Z,1.80
2023-01-20T09:00:28.693Z,1.90
2023-01-20T09:02:58.497Z,1.90
2023-01-20T09:05:27.437Z,2.10
2023-01-20T09:07:55.929Z,2.20
2023-01-20T09:10:25.815Z,2.40
2023-01-20T09:12:53.972Z,2.50
2023-01-20T09:15:25.450Z,2.90
2023-01-20T09:17:53.975Z,3.30
2023-01-20T09:20:25.015Z,3.50
2023-01-20T09:22:53.761Z,3.70
2023-01-20T09:25:22.541Z,3.90
2023-01-20T09:27:53.558Z,4.00
2023-01-20T09:30:26.649Z,4.00
2023-01-20T09:33:01.099Z,3.70
2023-01-20T09:35:34.557Z,3.80
2023-01-20T09:38:23.695Z,4.00
2023-01-20T09:41:55.884Z,4.50
2023-01-20T09:48:14.326Z,5.20
2023-01-20T09:51:09.356Z,5.50
2023-01-20T09:53:50.030Z,5.30
2023-01-20T09:56:22.889Z,5.40
2023-01-20T09:58:57.269Z,5.60
2023-01-20T10:01:32.185Z,5.30
2023-01-20T10:04:07.064Z,5.10
2023-01-20T10:06:43.247Z,4.50
2023-01-20T10:09:21.305Z,4.50
2023-01-20T10:11:51.159Z,4.40
2023-01-20T10:14:26.191Z,4.30
2023-01-20T10:16:59.519Z,4.10
2023-01-20T10:19:36.158Z,4.60
2023-01-20T10:22:12.326Z,5.00
2023-01-20T10:24:49.143Z,5.30
2023-01-20T10:27:17.404Z,5.60
2023-01-20T10:29:48.870Z,6.00
2023-01-20T10:32:25.722Z,6.30
2023-01-20T10:34:57.157Z,6.50
2023-01-20T10:37:29.340Z,6.60
2023-01-20T10:40:04.590Z,6.70
2023-01-20T10:42:35.053Z,6.60
2023-01-20T10:45:03.578Z,6.70
2023-01-20T10:47:44.739Z,6.90
2023-01-20T10:50:40.137Z,6.60
2023-01-20T10:53:35.716Z,6.60
2023-01-20T10:56:14.900Z,6.50
2023-01-20T10:58:45.403Z,6.60
2023-01-20T11:01:17.661Z,5.90
2023-01-20T11:03:47.993Z,5.10
2023-01-20T11:06:20.839Z,4.80
2023-01-20T11:08:50.545Z,5.00
2023-01-20T11:11:21.658Z,5.30
2023-01-20T11:13:51.740Z,5.60
2023-01-20T11:16:24.705Z,6.00
2023-01-20T11:18:59.599Z,6.40
2023-01-20T11:21:29.893Z,6.40
2023-01-20T11:24:00.549Z,6.20
2023-01-20T11:26:31.541Z,6.10
2023-01-20T11:29:02.619Z,6.10
2023-01-20T11:31:39.494Z,6.60
2023-01-20T11:34:22.719Z,6.50
2023-01-20T11:36:51.168Z,6.70
2023-01-20T11:39:33.658Z,6.60
2023-01-20T11:42:17.595Z,6.60
2023-01-20T11:44:46.211Z,6.60
2023-01-20T11:53:26.626Z,5.80
2023-01-20T11:59:22.275Z,5.00
2023-01-20T12:04:52.899Z,5.50
2023-01-20T12:07:25.620Z,5.70
2023-01-20T12:09:57.348Z,5.30
2023-01-20T12:21:39.111Z,4.00
2023-01-20T12:27:21.801Z,3.30
2023-01-20T12:29:53.222Z,2.90
2023-01-20T13:07:14.538Z,2.50
2023-01-20T13:10:10.282Z,2.60
2023-01-20T13:12:49.073Z,2.80
2023-01-20T13:15:26.379Z,2.80
2023-01-20T13:18:24.741Z,2.80
2023-01-20T13:20:54.736Z,2.70
2023-01-20T13:23:27.189Z,2.60
2023-01-20T13:25:58.905Z,2.40
2023-01-20T13:28:29.292Z,2.50
2023-01-20T13:30:59.030Z,2.50
2023-01-20T13:33:39.378Z,2.50
2023-01-20T13:36:17.924Z,2.60
2023-01-20T13:38:47.169Z,2.40
2023-01-20T13:41:51.067Z,2.40
2023-01-20T13:44:35.603Z,2.30
2023-01-20T13:47:04.615Z,2.20
2023-01-20T13:49:52.347Z,2.10
2023-01-20T13:53:04.098Z,2.10
2023-01-20T13:55:51.934Z,2.10
2023-01-20T13:58:23.951Z,2.10
2023-01-20T14:00:54.013Z,2.10
2023-01-20T14:03:25.146Z,2.10
2023-01-20T14:05:55.549Z,2.00
2023-01-20T14:08:25.401Z,2.00
2023-01-20T14:11:04.055Z,2.00
2023-01-20T14:13:33.591Z,2.10
2023-01-20T14:16:01.782Z,2.10
2023-01-20T14:18:29.992Z,2.10
2023-01-20T14:21:03.180Z,2.10
2023-01-20T14:23:46.517Z,2.00
2023-01-20T14:26:28.493Z,2.10
2023-01-20T14:29:27.851Z,2.00
2023-01-20T14:32:22.277Z,2.00
2023-01-20T14:35:24.926Z,1.90
2023-01-20T14:37:56.522Z,1.60
2023-01-20T14:40:28.164Z,1.80
2023-01-20T14:42:58.140Z,1.70
2023-01-20T14:45:29.816Z,1.70
2023-01-20T14:47:59.984Z,1.70
2023-01-20T14:50:28.814Z,1.60
2023-01-20T14:52:57.370Z,1.60
2023-01-20T14:55:30.373Z,1.50
2023-01-20T14:57:59.252Z,1.60
2023-01-20T15:00:30.733Z,1.60
2023-01-20T15:03:11.452Z,1.60
2023-01-20T15:05:42.167Z,1.50
2023-01-20T15:08:31.697Z,1.50
2023-01-20T15:11:29.055Z,1.50
2023-01-20T15:14:11.379Z,1.40
2023-01-20T15:16:50.177Z,1.30
2023-01-20T15:19:32.173Z,1.20
2023-01-20T15:22:22.358Z,1.10
2023-01-20T15:24:51.378Z,1.00
2023-01-20T15:27:34.555Z,1.00
2023-01-20T15:30:15.748Z,1.10
2023-01-20T15:32:45.545Z,0.90
2023-01-20T15:35:15.370Z,0.80
2023-01-20T15:37:44.776Z,0.90
2023-01-20T15:40:18.638Z,0.90
2023-01-20T15:42:47.169Z,0.90
2023-01-20T15:45:16.145Z,0.80
2023-01-20T15:47:47.412Z,0.80
2023-01-20T15:50:18.044Z,0.70
2023-01-20T15:52:46.420Z,0.70
2023-01-20T15:55:16.125Z,0.80
2023-01-20T15:57:46.181Z,0.90
2023-01-20T16:00:18.665Z,0.80
2023-01-20T16:02:48.824Z,0.80
2023-01-20T16:05:40.432Z,0.80
2023-01-20T16:08:15.305Z,0.70
2023-01-20T16:10:43.683Z,0.60
2023-01-20T16:13:12.590Z,0.60
2023-01-20T16:15:43.048Z,0.40
2023-01-20T16:18:18.509Z,0.30
2023-01-20T16:20:49.894Z,0.20
2023-01-20T16:23:24.643Z,0.10
2023-01-20T16:25:53.168Z,0.10
2023-01-20T16:28:26.239Z,0.10
2023-01-20T16:31:03.185Z,0.20
2023-01-20T16:33:33.525Z,0.10
2023-01-20T16:36:06.486Z,-0.60
2023-01-20T16:38:49.053Z,0.50
2023-01-20T16:41:45.086Z,-0.70
2023-01-20T16:47:20.428Z,0.10
2023-01-20T16:50:02.304Z,0.00
2023-01-20T16:52:38.645Z,0.00
2023-01-20T16:55:36.147Z,0.50
2023-01-20T16:58:46.432Z,0.30
2023-01-20T17:01:13.856Z,0.20
2023-01-20T17:03:43.489Z,0.00
2023-01-20T17:06:17.878Z,0.10
2023-01-20T17:09:16.883Z,0.10
2023-01-20T17:11:48.933Z,0.30
2023-01-20T17:14:19.503Z,0.30
2023-01-20T17:20:40.638Z,0.40
2023-01-20T17:34:05.127Z,0.20
2023-01-20T17:36:34.771Z,0.20
2023-01-20T17:39:03.911Z,0.20
2023-01-20T17:41:32.087Z,0.10
2023-01-20T17:44:00.234Z,0.20
2023-01-20T17:46:30.523Z,0.40
2023-01-20T17:48:59.111Z,0.40
2023-01-20T17:51:30.245Z,0.40
2023-01-20T17:54:00.641Z,0.30
2023-01-20T17:56:29.863Z,0.30
2023-01-20T17:58:57.899Z,0.20
2023-01-20T18:01:27.906Z,0.40
2023-01-20T18:03:58.673Z,0.50
2023-01-20T18:06:29.527Z,0.50
2023-01-20T18:08:59.448Z,0.40
2023-01-20T18:11:29.437Z,0.30
2023-01-20T18:13:58.870Z,0.30
2023-01-20T18:16:29.882Z,0.30
2023-01-20T18:18:59.549Z,0.30
2023-01-20T18:21:30.867Z,0.10
2023-01-20T18:24:00.069Z,0.30
2023-01-20T18:26:30.493Z,0.30
2023-01-20T18:29:00.130Z,0.30
2023-01-20T18:31:30.185Z,0.20
2023-01-20T18:34:00.681Z,0.20
2023-01-20T18:36:31.779Z,0.20
2023-01-20T18:39:01.533Z,0.20
2023-01-20T18:41:31.853Z,0.10
2023-01-20T18:44:00.523Z,0.10
2023-01-20T18:46:29.301Z,0.20
2023-01-20T18:48:57.501Z,0.10
2023-01-20T18:51:27.417Z,0.20
2023-01-20T18:53:58.835Z,0.20
2023-01-20T18:56:28.293Z,0.20
2023-01-20T18:58:56.819Z,0.20
2023-01-20T19:01:27.894Z,0.20
2023-01-20T19:03:56.274Z,0.30
2023-01-20T19:06:26.310Z,0.20
2023-01-20T19:08:56.618Z,0.20
2023-01-20T19:11:26.638Z,0.20
2023-01-20T19:13:55.193Z,0.30
2023-01-20T19:16:25.553Z,0.30
2023-01-20T19:18:55.366Z,0.30
2023-01-20T19:21:24.463Z,0.30
2023-01-20T19:23:54.155Z,0.20
2023-01-20T19:26:24.892Z,0.20
2023-01-20T19:28:58.130Z,0.20
2023-01-20T19:31:26.347Z,0.20
2023-01-20T19:33:54.556Z,0.10
2023-01-20T19:36:23.647Z,0.10
2023-01-20T19:38:52.702Z,0.20
2023-01-20T19:41:25.702Z,0.20
2023-01-20T19:43:57.054Z,0.10
2023-01-20T19:46:26.579Z,0.20
2023-01-20T19:48:57.455Z,0.20
2023-01-20T19:51:26.664Z,0.20
2023-01-20T19:53:58.098Z,0.10
2023-01-20T19:56:29.917Z,0.10
2023-01-20T19:59:00.586Z,0.10
2023-01-20T20:01:31.691Z,0.10
2023-01-20T20:04:11.793Z,0.00
2023-01-20T20:06:43.918Z,0.00
2023-01-20T20:09:15.666Z,0.10
2023-01-20T20:11:45.681Z,0.10
2023-01-20T20:14:16.181Z,0.00
2023-01-20T20:16:44.983Z,0.00
2023-01-20T20:19:16.189Z,0.00
2023-01-20T20:21:46.501Z,0.00
2023-01-20T20:24:15.848Z,0.00
2023-01-20T20:26:46.672Z,0.20
2023-01-20T20:29:16.518Z,0.20
2023-01-20T20:31:45.013Z,0.10
2023-01-20T20:34:15.929Z,0.10
2023-01-20T20:36:44.482Z,0.10
2023-01-20T20:39:15.758Z,0.00
2023-01-20T20:41:45.854Z,0.00
2023-01-20T20:44:14.471Z,0.00
2023-01-20T20:46:43.450Z,0.00
2023-01-20T20:49:14.168Z,0.00
2023-01-20T20:51:42.197Z,0.00
2023-01-20T20:54:13.100Z,0.10
2023-01-20T20:56:41.287Z,0.00
2023-01-20T20:59:11.024Z,0.00
2023-01-20T21:01:39.306Z,0.00
2023-01-20T21:04:07.536Z,0.00
2023-01-20T21:06:35.600Z,0.00
2023-01-20T21:09:03.803Z,0.00
2023-01-20T21:11:32.750Z,-0.10
2023-01-20T21:14:00.929Z,0.00
2023-01-20T21:16:30.452Z,0.00
2023-01-20T21:19:01.424Z,-0.10
2023-01-20T21:21:29.897Z,-0.10
2023-01-20T21:23:59.553Z,-0.10
2023-01-20T21:26:30.687Z,-0.10
2023-01-20T21:29:02.064Z,-0.10
2023-01-20T21:31:32.451Z,-0.10
2023-01-20T21:34:01.716Z,-0.10
2023-01-20T21:36:31.236Z,-0.10
2023-01-20T21:39:00.046Z,0.00
2023-01-20T21:41:28.259Z,0.10
2023-01-20T21:44:14.046Z,0.00
2023-01-20T21:46:43.782Z,0.00
2023-01-20T21:49:29.732Z,0.00
2023-01-20T21:52:15.109Z,-0.10
2023-01-20T21:54:45.363Z,0.00
2023-01-20T21:57:14.631Z,-0.10
2023-01-20T21:59:43.240Z,-0.10
2023-01-20T22:02:14.187Z,0.00
2023-01-20T22:04:42.627Z,0.00
2023-01-20T22:07:11.521Z,0.00
2023-01-20T22:09:39.600Z,0.00
2023-01-20T22:12:08.194Z,0.00
2023-01-20T22:14:36.372Z,0.00
2023-01-20T22:17:04.710Z,0.00
2023-01-20T22:19:34.363Z,0.00
2023-01-20T22:22:02.866Z,0.00
2023-01-20T22:24:31.739Z,0.00
2023-01-20T22:27:00.060Z,0.10
2023-01-20T22:29:28.279Z,0.10
2023-01-20T22:31:57.570Z,0.10
2023-01-20T22:34:26.286Z,0.10
2023-01-20T22:36:57.982Z,0.10
2023-01-20T22:39:26.140Z,0.10
2023-01-20T22:41:54.180Z,0.00
2023-01-20T22:44:22.295Z,0.00
2023-01-20T22:46:50.358Z,0.00
2023-01-20T22:49:18.632Z,0.00
2023-01-20T22:51:46.675Z,0.00
2023-01-20T22:54:16.082Z,0.10
2023-01-20T22:56:44.074Z,0.00
2023-01-20T22:59:13.711Z,0.00
2023-01-20T23:01:41.793Z,0.10
2023-01-20T23:04:11.463Z,0.00
2023-01-20T23:06:39.555Z,0.00
2023-01-20T23:09:09.237Z,0.00
2023-01-20T23:11:40.147Z,-0.10
2023-01-20T23:14:10.734Z,0.00
2023-01-20T23:16:38.955Z,0.00
2023-01-20T23:19:07.409Z,0.00
2023-01-20T23:21:35.969Z,0.00
2023-01-20T23:24:04.080Z,0.00
2023-01-20T23:26:34.307Z,-0.10
2023-01-20T23:29:04.238Z,-0.10
2023-01-20T23:31:35.353Z,-0.10
2023-01-20T23:34:03.836Z,-0.10
2023-01-20T23:36:32.716Z,-0.10
2023-01-20T23:39:01.201Z,-0.10
2023-01-20T23:41:29.521Z,-0.10
2023-01-20T23:43:58.404Z,0.00
2023-01-20T23:46:27.904Z,0.00
2023-01-20T23:48:56.391Z,0.00
2023-01-20T23:51:24.728Z,0.00
2023-01-20T23:53:53.282Z,0.00
2023-01-20T23:56:23.697Z,0.00
2023-01-20T23:58:52.722Z,0.00
